sensor_id;sensor_type;location;lat;lon;timestamp;P1;durP1;ratioP1;P2;durP2;ratioP2
16973;SDS011;8603;46.944;7.412;2022-08-19T00:01:35;9.27;;;8.38;;
16973;SDS011;8603;46.944;7.412;2022-08-19T00:04:04;10.25;;;8.43;;
16973;SDS011;8603;46.944;7.412;2022-08-19T00:06:31;9.90;;;8.90;;
16973;SDS011;8603;46.944;7.412;2022-08-19T00:09:00;10.15;;;9.18;;
16973;SDS011;8603;46.944;7.412;2022-08-19T00:11:28;10.38;;;9.10;;
16973;SDS011;8603;46.944;7.412;2022-08-19T00:13:54;9.65;;;8.85;;
16973;SDS011;8603;46.944;7.412;2022-08-19T00:16:21;10.90;;;9.85;;
16973;SDS011;8603;46.944;7.412;2022-08-19T00:18:48;9.98;;;9.05;;
16973;SDS011;8603;46.944;7.412;2022-08-19T00:21:14;9.73;;;8.82;;
16973;SDS011;8603;46.944;7.412;2022-08-19T00:23:40;9.93;;;9.07;;
16973;SDS011;8603;46.944;7.412;2022-08-19T00:26:08;9.15;;;8.25;;
16973;SDS011;8603;46.944;7.412;2022-08-19T00:28:34;11.55;;;10.40;;
16973;SDS011;8603;46.944;7.412;2022-08-19T00:31:01;11.82;;;10.63;;
16973;SDS011;8603;46.944;7.412;2022-08-19T00:33:28;11.45;;;10.27;;
16973;SDS011;8603;46.944;7.412;2022-08-19T00:35:57;11.00;;;9.90;;
16973;SDS011;8603;46.944;7.412;2022-08-19T00:38:23;10.02;;;9.15;;
16973;SDS011;8603;46.944;7.412;2022-08-19T00:40:49;10.30;;;9.40;;
16973;SDS011;8603;46.944;7.412;2022-08-19T00:43:18;10.65;;;9.65;;
16973;SDS011;8603;46.944;7.412;2022-08-19T00:45:46;11.32;;;10.15;;
16973;SDS011;8603;46.944;7.412;2022-08-19T00:48:12;13.02;;;11.13;;
16973;SDS011;8603;46.944;7.412;2022-08-19T00:50:39;11.88;;;10.70;;
16973;SDS011;8603;46.944;7.412;2022-08-19T00:53:07;12.30;;;11.00;;
16973;SDS011;8603;46.944;7.412;2022-08-19T00:55:35;13.15;;;11.85;;
16973;SDS011;8603;46.944;7.412;2022-08-19T00:58:04;12.55;;;11.27;;
16973;SDS011;8603;46.944;7.412;2022-08-19T01:00:32;11.93;;;10.50;;
16973;SDS011;8603;46.944;7.412;2022-08-19T01:03:06;11.25;;;10.25;;
16973;SDS011;8603;46.944;7.412;2022-08-19T01:05:34;10.98;;;9.82;;
16973;SDS011;8603;46.944;7.412;2022-08-19T01:08:02;11.23;;;9.82;;
16973;SDS011;8603;46.944;7.412;2022-08-19T01:10:31;9.70;;;8.80;;
16973;SDS011;8603;46.944;7.412;2022-08-19T01:13:01;9.30;;;8.45;;
16973;SDS011;8603;46.944;7.412;2022-08-19T01:15:34;8.98;;;8.13;;
16973;SDS011;8603;46.944;7.412;2022-08-19T01:18:05;10.90;;;9.45;;
16973;SDS011;8603;46.944;7.412;2022-08-19T01:20:34;11.13;;;9.57;;
16973;SDS011;8603;46.944;7.412;2022-08-19T01:23:00;9.68;;;8.80;;
16973;SDS011;8603;46.944;7.412;2022-08-19T01:25:32;10.68;;;9.65;;
16973;SDS011;8603;46.944;7.412;2022-08-19T01:28:03;10.10;;;9.10;;
16973;SDS011;8603;46.944;7.412;2022-08-19T01:30:31;9.85;;;8.95;;
16973;SDS011;8603;46.944;7.412;2022-08-19T01:32:59;11.45;;;9.75;;
16973;SDS011;8603;46.944;7.412;2022-08-19T01:35:25;9.82;;;8.93;;
16973;SDS011;8603;46.944;7.412;2022-08-19T01:37:54;9.35;;;8.55;;
16973;SDS011;8603;46.944;7.412;2022-08-19T01:40:23;10.10;;;9.10;;
16973;SDS011;8603;46.944;7.412;2022-08-19T01:42:52;12.82;;;10.48;;
16973;SDS011;8603;46.944;7.412;2022-08-19T01:45:19;10.45;;;9.40;;
16973;SDS011;8603;46.944;7.412;2022-08-19T01:47:45;10.95;;;9.85;;
16973;SDS011;8603;46.944;7.412;2022-08-19T01:50:11;10.98;;;9.98;;
16973;SDS011;8603;46.944;7.412;2022-08-19T01:52:39;10.52;;;9.35;;
16973;SDS011;8603;46.944;7.412;2022-08-19T01:55:07;10.10;;;9.20;;
16973;SDS011;8603;46.944;7.412;2022-08-19T01:57:34;10.10;;;9.20;;
16973;SDS011;8603;46.944;7.412;2022-08-19T02:00:01;10.75;;;9.70;;
16973;SDS011;8603;46.944;7.412;2022-08-19T02:02:30;11.07;;;10.05;;
16973;SDS011;8603;46.944;7.412;2022-08-19T02:04:56;11.10;;;10.05;;
16973;SDS011;8603;46.944;7.412;2022-08-19T02:07:22;11.35;;;10.25;;
16973;SDS011;8603;46.944;7.412;2022-08-19T02:09:47;9.57;;;8.68;;
16973;SDS011;8603;46.944;7.412;2022-08-19T02:12:14;9.18;;;8.38;;
16973;SDS011;8603;46.944;7.412;2022-08-19T02:14:41;9.50;;;8.40;;
16973;SDS011;8603;46.944;7.412;2022-08-19T02:17:07;9.75;;;8.85;;
16973;SDS011;8603;46.944;7.412;2022-08-19T02:19:33;9.90;;;8.93;;
16973;SDS011;8603;46.944;7.412;2022-08-19T02:21:59;10.05;;;9.15;;
16973;SDS011;8603;46.944;7.412;2022-08-19T02:24:26;10.75;;;9.63;;
16973;SDS011;8603;46.944;7.412;2022-08-19T02:26:52;9.68;;;8.70;;
16973;SDS011;8603;46.944;7.412;2022-08-19T02:29:18;9.82;;;8.93;;
16973;SDS011;8603;46.944;7.412;2022-08-19T02:31:44;10.60;;;9.50;;
16973;SDS011;8603;46.944;7.412;2022-08-19T02:34:10;10.35;;;9.35;;
16973;SDS011;8603;46.944;7.412;2022-08-19T02:36:35;8.73;;;7.93;;
16973;SDS011;8603;46.944;7.412;2022-08-19T02:39:01;9.63;;;8.80;;
16973;SDS011;8603;46.944;7.412;2022-08-19T02:41:28;12.65;;;11.45;;
16973;SDS011;8603;46.944;7.412;2022-08-19T02:43:57;11.18;;;10.15;;
16973;SDS011;8603;46.944;7.412;2022-08-19T02:46:25;11.18;;;10.05;;
16973;SDS011;8603;46.944;7.412;2022-08-19T02:48:55;10.65;;;9.70;;
16973;SDS011;8603;46.944;7.412;2022-08-19T02:51:24;9.70;;;8.80;;
16973;SDS011;8603;46.944;7.412;2022-08-19T02:53:52;8.88;;;8.07;;
16973;SDS011;8603;46.944;7.412;2022-08-19T02:56:19;9.63;;;8.73;;
16973;SDS011;8603;46.944;7.412;2022-08-19T02:58:45;9.25;;;8.35;;
16973;SDS011;8603;46.944;7.412;2022-08-19T03:01:11;10.05;;;9.15;;
16973;SDS011;8603;46.944;7.412;2022-08-19T03:03:46;9.63;;;8.80;;
16973;SDS011;8603;46.944;7.412;2022-08-19T03:06:14;12.05;;;10.75;;
16973;SDS011;8603;46.944;7.412;2022-08-19T03:08:41;10.25;;;9.38;;
16973;SDS011;8603;46.944;7.412;2022-08-19T03:11:16;10.98;;;9.98;;
16973;SDS011;8603;46.944;7.412;2022-08-19T03:13:43;9.77;;;8.93;;
16973;SDS011;8603;46.944;7.412;2022-08-19T03:16:10;10.00;;;9.10;;
16973;SDS011;8603;46.944;7.412;2022-08-19T03:18:36;10.63;;;9.63;;
16973;SDS011;8603;46.944;7.412;2022-08-19T03:21:02;10.27;;;9.35;;
16973;SDS011;8603;46.944;7.412;2022-08-19T03:23:28;10.38;;;9.38;;
16973;SDS011;8603;46.944;7.412;2022-08-19T03:25:53;11.10;;;10.07;;
16973;SDS011;8603;46.944;7.412;2022-08-19T03:28:19;12.05;;;10.93;;
16973;SDS011;8603;46.944;7.412;2022-08-19T03:30:56;11.90;;;10.70;;
16973;SDS011;8603;46.944;7.412;2022-08-19T03:33:24;11.80;;;10.55;;
16973;SDS011;8603;46.944;7.412;2022-08-19T03:36:04;11.52;;;10.43;;
16973;SDS011;8603;46.944;7.412;2022-08-19T03:38:45;12.93;;;11.45;;
16973;SDS011;8603;46.944;7.412;2022-08-19T03:41:13;12.70;;;11.43;;
16973;SDS011;8603;46.944;7.412;2022-08-19T03:43:41;11.20;;;10.07;;
16973;SDS011;8603;46.944;7.412;2022-08-19T03:46:09;11.38;;;10.25;;
16973;SDS011;8603;46.944;7.412;2022-08-19T03:48:37;15.88;;;13.07;;
16973;SDS011;8603;46.944;7.412;2022-08-19T03:51:04;14.25;;;12.50;;
16973;SDS011;8603;46.944;7.412;2022-08-19T03:53:31;13.43;;;12.02;;
16973;SDS011;8603;46.944;7.412;2022-08-19T03:55:58;12.73;;;11.52;;
16973;SDS011;8603;46.944;7.412;2022-08-19T03:58:25;15.25;;;13.85;;
16973;SDS011;8603;46.944;7.412;2022-08-19T04:00:53;15.70;;;14.02;;
16973;SDS011;8603;46.944;7.412;2022-08-19T04:03:20;15.63;;;14.05;;
16973;SDS011;8603;46.944;7.412;2022-08-19T04:05:46;16.02;;;13.85;;
16973;SDS011;8603;46.944;7.412;2022-08-19T04:08:12;15.38;;;13.88;;
16973;SDS011;8603;46.944;7.412;2022-08-19T04:10:38;13.63;;;12.32;;
16973;SDS011;8603;46.944;7.412;2022-08-19T04:13:05;13.68;;;12.05;;
16973;SDS011;8603;46.944;7.412;2022-08-19T04:15:32;13.25;;;12.05;;
16973;SDS011;8603;46.944;7.412;2022-08-19T04:18:03;13.25;;;12.00;;
16973;SDS011;8603;46.944;7.412;2022-08-19T04:20:31;12.52;;;11.32;;
16973;SDS011;8603;46.944;7.412;2022-08-19T04:22:56;12.38;;;11.10;;
16973;SDS011;8603;46.944;7.412;2022-08-19T04:25:22;13.05;;;11.75;;
16973;SDS011;8603;46.944;7.412;2022-08-19T04:27:47;12.80;;;11.55;;
16973;SDS011;8603;46.944;7.412;2022-08-19T04:30:14;13.57;;;12.27;;
16973;SDS011;8603;46.944;7.412;2022-08-19T04:32:47;12.63;;;11.43;;
16973;SDS011;8603;46.944;7.412;2022-08-19T04:35:13;13.43;;;12.13;;
16973;SDS011;8603;46.944;7.412;2022-08-19T04:37:38;14.25;;;12.85;;
16973;SDS011;8603;46.944;7.412;2022-08-19T04:40:05;12.82;;;11.52;;
16973;SDS011;8603;46.944;7.412;2022-08-19T04:42:50;11.63;;;10.45;;
16973;SDS011;8603;46.944;7.412;2022-08-19T04:45:16;10.32;;;9.27;;
16973;SDS011;8603;46.944;7.412;2022-08-19T04:47:42;12.25;;;11.05;;
16973;SDS011;8603;46.944;7.412;2022-08-19T04:50:09;10.55;;;9.35;;
16973;SDS011;8603;46.944;7.412;2022-08-19T04:52:36;11.43;;;10.13;;
16973;SDS011;8603;46.944;7.412;2022-08-19T04:55:02;11.23;;;10.23;;
16973;SDS011;8603;46.944;7.412;2022-08-19T04:57:30;10.30;;;9.15;;
16973;SDS011;8603;46.944;7.412;2022-08-19T04:59:56;9.85;;;8.95;;
16973;SDS011;8603;46.944;7.412;2022-08-19T05:02:22;8.77;;;7.88;;
16973;SDS011;8603;46.944;7.412;2022-08-19T05:04:49;9.38;;;8.48;;
16973;SDS011;8603;46.944;7.412;2022-08-19T05:07:15;9.98;;;8.98;;
16973;SDS011;8603;46.944;7.412;2022-08-19T05:09:41;8.98;;;8.15;;
16973;SDS011;8603;46.944;7.412;2022-08-19T05:12:07;9.75;;;8.73;;
16973;SDS011;8603;46.944;7.412;2022-08-19T05:14:33;9.85;;;8.07;;
16973;SDS011;8603;46.944;7.412;2022-08-19T05:17:00;9.57;;;8.68;;
16973;SDS011;8603;46.944;7.412;2022-08-19T05:19:26;9.82;;;8.93;;
16973;SDS011;8603;46.944;7.412;2022-08-19T05:22:10;11.23;;;9.05;;
16973;SDS011;8603;46.944;7.412;2022-08-19T05:24:54;9.80;;;8.85;;
16973;SDS011;8603;46.944;7.412;2022-08-19T05:27:20;9.20;;;8.40;;
16973;SDS011;8603;46.944;7.412;2022-08-19T05:29:45;9.82;;;8.65;;
16973;SDS011;8603;46.944;7.412;2022-08-19T05:32:11;10.18;;;8.40;;
16973;SDS011;8603;46.944;7.412;2022-08-19T05:34:37;9.70;;;8.75;;
16973;SDS011;8603;46.944;7.412;2022-08-19T05:37:03;9.10;;;8.20;;
16973;SDS011;8603;46.944;7.412;2022-08-19T05:39:30;8.98;;;8.07;;
16973;SDS011;8603;46.944;7.412;2022-08-19T05:41:58;9.38;;;8.48;;
16973;SDS011;8603;46.944;7.412;2022-08-19T05:44:30;9.90;;;8.90;;
16973;SDS011;8603;46.944;7.412;2022-08-19T05:46:58;8.75;;;7.95;;
16973;SDS011;8603;46.944;7.412;2022-08-19T05:49:25;8.65;;;7.90;;
16973;SDS011;8603;46.944;7.412;2022-08-19T05:51:51;8.85;;;7.28;;
16973;SDS011;8603;46.944;7.412;2022-08-19T05:54:18;7.75;;;7.05;;
16973;SDS011;8603;46.944;7.412;2022-08-19T05:56:44;9.10;;;8.20;;
16973;SDS011;8603;46.944;7.412;2022-08-19T05:59:12;7.60;;;6.80;;
16973;SDS011;8603;46.944;7.412;2022-08-19T06:01:47;7.93;;;7.22;;
16973;SDS011;8603;46.944;7.412;2022-08-19T06:04:31;8.35;;;7.55;;
16973;SDS011;8603;46.944;7.412;2022-08-19T06:07:00;8.73;;;7.93;;
16973;SDS011;8603;46.944;7.412;2022-08-19T06:09:26;9.35;;;8.43;;
16973;SDS011;8603;46.944;7.412;2022-08-19T06:11:53;8.77;;;7.93;;
16973;SDS011;8603;46.944;7.412;2022-08-19T06:14:29;7.75;;;7.05;;
16973;SDS011;8603;46.944;7.412;2022-08-19T06:16:56;7.60;;;6.93;;
16973;SDS011;8603;46.944;7.412;2022-08-19T06:19:23;7.53;;;6.82;;
16973;SDS011;8603;46.944;7.412;2022-08-19T06:21:53;7.75;;;7.05;;
16973;SDS011;8603;46.944;7.412;2022-08-19T06:24:21;6.28;;;5.68;;
16973;SDS011;8603;46.944;7.412;2022-08-19T06:26:48;6.70;;;6.10;;
16973;SDS011;8603;46.944;7.412;2022-08-19T06:29:17;7.40;;;6.70;;
16973;SDS011;8603;46.944;7.412;2022-08-19T06:31:45;7.50;;;6.80;;
16973;SDS011;8603;46.944;7.412;2022-08-19T06:34:13;7.50;;;6.82;;
16973;SDS011;8603;46.944;7.412;2022-08-19T06:36:40;8.10;;;7.30;;
16973;SDS011;8603;46.944;7.412;2022-08-19T06:39:23;7.63;;;6.93;;
16973;SDS011;8603;46.944;7.412;2022-08-19T06:42:23;9.43;;;8.57;;
16973;SDS011;8603;46.944;7.412;2022-08-19T06:45:29;10.20;;;9.18;;
16973;SDS011;8603;46.944;7.412;2022-08-19T06:48:17;13.07;;;10.77;;
16973;SDS011;8603;46.944;7.412;2022-08-19T06:53:22;13.07;;;9.73;;
16973;SDS011;8603;46.944;7.412;2022-08-19T06:55:55;9.93;;;8.93;;
16973;SDS011;8603;46.944;7.412;2022-08-19T06:58:27;9.27;;;8.27;;
16973;SDS011;8603;46.944;7.412;2022-08-19T07:00:57;11.57;;;9.10;;
16973;SDS011;8603;46.944;7.412;2022-08-19T07:03:30;8.40;;;7.65;;
16973;SDS011;8603;46.944;7.412;2022-08-19T07:06:32;7.57;;;6.88;;
16973;SDS011;8603;46.944;7.412;2022-08-19T07:09:33;9.23;;;7.10;;
16973;SDS011;8603;46.944;7.412;2022-08-19T07:12:11;8.40;;;7.47;;
16973;SDS011;8603;46.944;7.412;2022-08-19T07:18:15;8.88;;;6.85;;
16973;SDS011;8603;46.944;7.412;2022-08-19T07:20:45;7.60;;;6.88;;
16973;SDS011;8603;46.944;7.412;2022-08-19T07:26:38;7.40;;;6.70;;
16973;SDS011;8603;46.944;7.412;2022-08-19T07:29:23;7.88;;;6.32;;
16973;SDS011;8603;46.944;7.412;2022-08-19T07:31:52;6.82;;;6.22;;
16973;SDS011;8603;46.944;7.412;2022-08-19T07:37:37;7.05;;;6.35;;
16973;SDS011;8603;46.944;7.412;2022-08-19T07:40:12;7.03;;;6.32;;
16973;SDS011;8603;46.944;7.412;2022-08-19T07:42:43;6.82;;;6.15;;
16973;SDS011;8603;46.944;7.412;2022-08-19T07:45:19;6.40;;;5.80;;
16973;SDS011;8603;46.944;7.412;2022-08-19T07:48:03;7.07;;;6.38;;
16973;SDS011;8603;46.944;7.412;2022-08-19T07:53:29;6.28;;;5.78;;
16973;SDS011;8603;46.944;7.412;2022-08-19T07:56:04;7.55;;;6.72;;
16973;SDS011;8603;46.944;7.412;2022-08-19T07:58:34;6.70;;;6.00;;
16973;SDS011;8603;46.944;7.412;2022-08-19T08:01:03;8.15;;;6.53;;
16973;SDS011;8603;46.944;7.412;2022-08-19T08:03:33;6.93;;;6.32;;
16973;SDS011;8603;46.944;7.412;2022-08-19T08:06:17;6.75;;;6.15;;
16973;SDS011;8603;46.944;7.412;2022-08-19T08:09:03;6.68;;;5.80;;
16973;SDS011;8603;46.944;7.412;2022-08-19T08:11:37;6.40;;;5.88;;
16973;SDS011;8603;46.944;7.412;2022-08-19T08:14:04;5.72;;;5.22;;
16973;SDS011;8603;46.944;7.412;2022-08-19T08:16:30;8.57;;;6.25;;
16973;SDS011;8603;46.944;7.412;2022-08-19T08:18:59;6.38;;;5.80;;
16973;SDS011;8603;46.944;7.412;2022-08-19T08:21:25;5.88;;;5.38;;
16973;SDS011;8603;46.944;7.412;2022-08-19T08:23:56;7.03;;;5.72;;
16973;SDS011;8603;46.944;7.412;2022-08-19T08:26:25;6.22;;;5.63;;
16973;SDS011;8603;46.944;7.412;2022-08-19T08:28:53;6.53;;;5.93;;
16973;SDS011;8603;46.944;7.412;2022-08-19T08:31:22;6.80;;;6.10;;
16973;SDS011;8603;46.944;7.412;2022-08-19T08:33:48;6.75;;;6.07;;
16973;SDS011;8603;46.944;7.412;2022-08-19T08:36:13;6.72;;;6.03;;
16973;SDS011;8603;46.944;7.412;2022-08-19T08:38:40;6.70;;;6.07;;
16973;SDS011;8603;46.944;7.412;2022-08-19T08:43:55;6.40;;;5.80;;
16973;SDS011;8603;46.944;7.412;2022-08-19T08:49:01;6.45;;;5.85;;
16973;SDS011;8603;46.944;7.412;2022-08-19T08:51:31;6.63;;;6.03;;
16973;SDS011;8603;46.944;7.412;2022-08-19T08:54:08;6.50;;;5.68;;
16973;SDS011;8603;46.944;7.412;2022-08-19T08:56:41;6.05;;;5.55;;
16973;SDS011;8603;46.944;7.412;2022-08-19T08:59:28;6.85;;;5.63;;
16973;SDS011;8603;46.944;7.412;2022-08-19T09:02:04;5.65;;;5.15;;
16973;SDS011;8603;46.944;7.412;2022-08-19T09:04:30;5.97;;;5.03;;
16973;SDS011;8603;46.944;7.412;2022-08-19T09:09:46;4.60;;;4.20;;
16973;SDS011;8603;46.944;7.412;2022-08-19T09:15:36;5.90;;;5.40;;
16973;SDS011;8603;46.944;7.412;2022-08-19T09:18:21;7.07;;;6.38;;
16973;SDS011;8603;46.944;7.412;2022-08-19T09:21:03;9.85;;;6.75;;
16973;SDS011;8603;46.944;7.412;2022-08-19T09:23:38;6.43;;;5.75;;
16973;SDS011;8603;46.944;7.412;2022-08-19T09:26:08;6.78;;;6.18;;
16973;SDS011;8603;46.944;7.412;2022-08-19T09:28:35;5.70;;;5.22;;
16973;SDS011;8603;46.944;7.412;2022-08-19T09:31:02;5.82;;;5.32;;
16973;SDS011;8603;46.944;7.412;2022-08-19T09:33:28;5.72;;;5.22;;
16973;SDS011;8603;46.944;7.412;2022-08-19T09:36:05;5.07;;;4.68;;
16973;SDS011;8603;46.944;7.412;2022-08-19T09:38:39;6.65;;;5.40;;
16973;SDS011;8603;46.944;7.412;2022-08-19T09:41:17;4.32;;;3.92;;
16973;SDS011;8603;46.944;7.412;2022-08-19T09:44:02;5.25;;;4.75;;
16973;SDS011;8603;46.944;7.412;2022-08-19T09:47:18;5.70;;;5.10;;
16973;SDS011;8603;46.944;7.412;2022-08-19T10:11:30;6.07;;;5.57;;
16973;SDS011;8603;46.944;7.412;2022-08-19T10:21:29;6.18;;;5.68;;
16973;SDS011;8603;46.944;7.412;2022-08-19T10:24:17;6.38;;;5.78;;
16973;SDS011;8603;46.944;7.412;2022-08-19T10:27:34;7.20;;;5.32;;
16973;SDS011;8603;46.944;7.412;2022-08-19T10:30:33;6.43;;;5.85;;
16973;SDS011;8603;46.944;7.412;2022-08-19T10:33:01;5.75;;;5.15;;
16973;SDS011;8603;46.944;7.412;2022-08-19T10:35:37;6.03;;;5.43;;
16973;SDS011;8603;46.944;7.412;2022-08-19T10:38:20;6.50;;;5.90;;
16973;SDS011;8603;46.944;7.412;2022-08-19T10:41:05;7.22;;;6.53;;
16973;SDS011;8603;46.944;7.412;2022-08-19T10:43:38;6.22;;;5.68;;
16973;SDS011;8603;46.944;7.412;2022-08-19T10:46:05;5.82;;;5.32;;
16973;SDS011;8603;46.944;7.412;2022-08-19T10:48:39;6.60;;;6.00;;
16973;SDS011;8603;46.944;7.412;2022-08-19T10:53:55;6.03;;;5.45;;
16973;SDS011;8603;46.944;7.412;2022-08-19T10:56:24;6.15;;;5.55;;
16973;SDS011;8603;46.944;7.412;2022-08-19T10:59:08;6.00;;;5.50;;
16973;SDS011;8603;46.944;7.412;2022-08-19T11:01:35;5.70;;;5.20;;
16973;SDS011;8603;46.944;7.412;2022-08-19T11:04:04;6.28;;;5.00;;
16973;SDS011;8603;46.944;7.412;2022-08-19T11:06:33;6.15;;;4.93;;
16973;SDS011;8603;46.944;7.412;2022-08-19T11:08:58;5.20;;;4.70;;
16973;SDS011;8603;46.944;7.412;2022-08-19T11:11:25;5.38;;;4.93;;
16973;SDS011;8603;46.944;7.412;2022-08-19T11:13:51;5.45;;;4.97;;
16973;SDS011;8603;46.944;7.412;2022-08-19T11:16:19;5.28;;;4.88;;
16973;SDS011;8603;46.944;7.412;2022-08-19T11:18:57;5.40;;;4.53;;
16973;SDS011;8603;46.944;7.412;2022-08-19T11:21:30;5.63;;;5.13;;
16973;SDS011;8603;46.944;7.412;2022-08-19T11:23:58;4.88;;;4.47;;
16973;SDS011;8603;46.944;7.412;2022-08-19T11:26:28;5.55;;;5.05;;
16973;SDS011;8603;46.944;7.412;2022-08-19T11:28:56;5.53;;;5.03;;
16973;SDS011;8603;46.944;7.412;2022-08-19T11:31:26;6.20;;;5.57;;
16973;SDS011;8603;46.944;7.412;2022-08-19T11:33:57;5.70;;;5.20;;
16973;SDS011;8603;46.944;7.412;2022-08-19T11:36:25;5.57;;;5.07;;
16973;SDS011;8603;46.944;7.412;2022-08-19T11:38:51;5.13;;;4.72;;
16973;SDS011;8603;46.944;7.412;2022-08-19T11:41:18;5.82;;;5.32;;
16973;SDS011;8603;46.944;7.412;2022-08-19T11:43:45;5.10;;;4.68;;
16973;SDS011;8603;46.944;7.412;2022-08-19T11:46:11;5.60;;;5.10;;
16973;SDS011;8603;46.944;7.412;2022-08-19T11:48:39;5.13;;;4.28;;
16973;SDS011;8603;46.944;7.412;2022-08-19T11:51:06;6.00;;;5.50;;
16973;SDS011;8603;46.944;7.412;2022-08-19T11:53:34;5.10;;;4.68;;
16973;SDS011;8603;46.944;7.412;2022-08-19T11:56:01;5.30;;;4.90;;
16973;SDS011;8603;46.944;7.412;2022-08-19T11:58:27;5.82;;;5.20;;
16973;SDS011;8603;46.944;7.412;2022-08-19T12:00:54;6.38;;;5.05;;
16973;SDS011;8603;46.944;7.412;2022-08-19T12:03:20;5.75;;;5.25;;
16973;SDS011;8603;46.944;7.412;2022-08-19T12:05:46;6.10;;;5.50;;
16973;SDS011;8603;46.944;7.412;2022-08-19T12:08:12;6.75;;;5.18;;
16973;SDS011;8603;46.944;7.412;2022-08-19T12:10:39;5.10;;;4.60;;
16973;SDS011;8603;46.944;7.412;2022-08-19T12:13:07;6.32;;;5.72;;
16973;SDS011;8603;46.944;7.412;2022-08-19T12:15:37;6.15;;;5.28;;
16973;SDS011;8603;46.944;7.412;2022-08-19T12:18:05;5.53;;;5.00;;
16973;SDS011;8603;46.944;7.412;2022-08-19T12:20:36;5.65;;;4.97;;
16973;SDS011;8603;46.944;7.412;2022-08-19T12:23:04;5.97;;;5.38;;
16973;SDS011;8603;46.944;7.412;2022-08-19T12:25:31;5.55;;;4.68;;
16973;SDS011;8603;46.944;7.412;2022-08-19T12:27:58;6.00;;;5.47;;
16973;SDS011;8603;46.944;7.412;2022-08-19T12:30:24;5.35;;;4.85;;
16973;SDS011;8603;46.944;7.412;2022-08-19T12:32:50;5.40;;;4.93;;
16973;SDS011;8603;46.944;7.412;2022-08-19T12:35:16;5.70;;;5.20;;
16973;SDS011;8603;46.944;7.412;2022-08-19T12:37:45;6.13;;;5.53;;
16973;SDS011;8603;46.944;7.412;2022-08-19T12:40:14;5.82;;;5.22;;
16973;SDS011;8603;46.944;7.412;2022-08-19T12:42:40;6.15;;;5.53;;
16973;SDS011;8603;46.944;7.412;2022-08-19T12:45:07;6.55;;;5.88;;
16973;SDS011;8603;46.944;7.412;2022-08-19T12:47:35;5.90;;;5.40;;
16973;SDS011;8603;46.944;7.412;2022-08-19T12:50:03;9.45;;;6.32;;
16973;SDS011;8603;46.944;7.412;2022-08-19T12:52:31;6.90;;;6.22;;
16973;SDS011;8603;46.944;7.412;2022-08-19T12:54:57;7.07;;;6.38;;
16973;SDS011;8603;46.944;7.412;2022-08-19T12:57:23;6.82;;;6.20;;
16973;SDS011;8603;46.944;7.412;2022-08-19T12:59:53;7.05;;;6.38;;
16973;SDS011;8603;46.944;7.412;2022-08-19T13:02:19;6.78;;;6.18;;
16973;SDS011;8603;46.944;7.412;2022-08-19T13:04:46;6.00;;;5.50;;
16973;SDS011;8603;46.944;7.412;2022-08-19T13:07:11;6.43;;;5.82;;
16973;SDS011;8603;46.944;7.412;2022-08-19T13:09:39;6.60;;;5.95;;
16973;SDS011;8603;46.944;7.412;2022-08-19T13:12:07;6.60;;;6.00;;
16973;SDS011;8603;46.944;7.412;2022-08-19T13:14:37;5.95;;;5.43;;
16973;SDS011;8603;46.944;7.412;2022-08-19T13:17:09;5.90;;;5.40;;
16973;SDS011;8603;46.944;7.412;2022-08-19T13:19:55;6.68;;;5.88;;
16973;SDS011;8603;46.944;7.412;2022-08-19T13:22:21;5.22;;;4.82;;
16973;SDS011;8603;46.944;7.412;2022-08-19T13:24:47;5.88;;;5.38;;
16973;SDS011;8603;46.944;7.412;2022-08-19T13:27:13;6.35;;;5.75;;
16973;SDS011;8603;46.944;7.412;2022-08-19T13:29:39;5.90;;;5.38;;
16973;SDS011;8603;46.944;7.412;2022-08-19T13:32:24;5.32;;;4.70;;
16973;SDS011;8603;46.944;7.412;2022-08-19T13:35:08;5.72;;;5.22;;
16973;SDS011;8603;46.944;7.412;2022-08-19T13:37:34;5.88;;;5.22;;
16973;SDS011;8603;46.944;7.412;2022-08-19T13:40:12;5.43;;;4.93;;
16973;SDS011;8603;46.944;7.412;2022-08-19T13:42:43;7.10;;;5.18;;
16973;SDS011;8603;46.944;7.412;2022-08-19T13:45:11;5.35;;;4.85;;
16973;SDS011;8603;46.944;7.412;2022-08-19T13:47:37;7.93;;;5.30;;
16973;SDS011;8603;46.944;7.412;2022-08-19T13:50:07;4.88;;;4.47;;
16973;SDS011;8603;46.944;7.412;2022-08-19T13:52:39;4.88;;;4.28;;
16973;SDS011;8603;46.944;7.412;2022-08-19T13:55:05;5.50;;;5.00;;
16973;SDS011;8603;46.944;7.412;2022-08-19T13:57:32;4.50;;;4.18;;
16973;SDS011;8603;46.944;7.412;2022-08-19T14:00:01;4.70;;;4.22;;
16973;SDS011;8603;46.944;7.412;2022-08-19T14:02:29;4.32;;;3.92;;
16973;SDS011;8603;46.944;7.412;2022-08-19T14:04:55;6.38;;;4.68;;
16973;SDS011;8603;46.944;7.412;2022-08-19T14:07:20;4.97;;;4.57;;
16973;SDS011;8603;46.944;7.412;2022-08-19T14:09:48;4.30;;;3.90;;
16973;SDS011;8603;46.944;7.412;2022-08-19T14:12:17;5.72;;;4.60;;
16973;SDS011;8603;46.944;7.412;2022-08-19T14:14:44;4.47;;;4.15;;
16973;SDS011;8603;46.944;7.412;2022-08-19T14:17:10;4.35;;;4.00;;
16973;SDS011;8603;46.944;7.412;2022-08-19T14:19:56;4.45;;;4.10;;
16973;SDS011;8603;46.944;7.412;2022-08-19T14:22:32;4.80;;;4.32;;
16973;SDS011;8603;46.944;7.412;2022-08-19T14:24:58;4.07;;;3.67;;
16973;SDS011;8603;46.944;7.412;2022-08-19T14:27:24;4.55;;;4.15;;
16973;SDS011;8603;46.944;7.412;2022-08-19T14:29:53;4.82;;;4.30;;
16973;SDS011;8603;46.944;7.412;2022-08-19T14:32:20;4.70;;;3.70;;
16973;SDS011;8603;46.944;7.412;2022-08-19T14:34:46;5.25;;;3.88;;
16973;SDS011;8603;46.944;7.412;2022-08-19T14:37:12;3.83;;;3.47;;
16973;SDS011;8603;46.944;7.412;2022-08-19T14:39:40;3.80;;;3.50;;
16973;SDS011;8603;46.944;7.412;2022-08-19T14:42:08;4.15;;;3.55;;
16973;SDS011;8603;46.944;7.412;2022-08-19T14:44:34;4.18;;;3.78;;
16973;SDS011;8603;46.944;7.412;2022-08-19T14:47:00;3.85;;;3.42;;
16973;SDS011;8603;46.944;7.412;2022-08-19T14:49:26;3.30;;;3.10;;
16973;SDS011;8603;46.944;7.412;2022-08-19T14:51:51;3.20;;;2.90;;
16973;SDS011;8603;46.944;7.412;2022-08-19T14:54:17;10.45;;;3.58;;
16973;SDS011;8603;46.944;7.412;2022-08-19T14:56:43;3.10;;;2.90;;
16973;SDS011;8603;46.944;7.412;2022-08-19T14:59:08;3.28;;;3.05;;
16973;SDS011;8603;46.944;7.412;2022-08-19T15:01:34;3.45;;;3.15;;
16973;SDS011;8603;46.944;7.412;2022-08-19T15:04:00;3.53;;;3.22;;
16973;SDS011;8603;46.944;7.412;2022-08-19T15:06:26;3.58;;;3.28;;
16973;SDS011;8603;46.944;7.412;2022-08-19T15:08:52;6.00;;;3.10;;
16973;SDS011;8603;46.944;7.412;2022-08-19T15:11:20;3.50;;;3.25;;
16973;SDS011;8603;46.944;7.412;2022-08-19T15:13:49;3.58;;;3.28;;
16973;SDS011;8603;46.944;7.412;2022-08-19T15:16:15;4.00;;;3.60;;
16973;SDS011;8603;46.944;7.412;2022-08-19T15:18:41;3.80;;;3.30;;
16973;SDS011;8603;46.944;7.412;2022-08-19T15:21:09;4.05;;;3.30;;
16973;SDS011;8603;46.944;7.412;2022-08-19T15:23:38;3.72;;;3.40;;
16973;SDS011;8603;46.944;7.412;2022-08-19T15:26:04;4.38;;;3.47;;
16973;SDS011;8603;46.944;7.412;2022-08-19T15:28:30;3.47;;;3.17;;
16973;SDS011;8603;46.944;7.412;2022-08-19T15:30:57;3.88;;;3.40;;
16973;SDS011;8603;46.944;7.412;2022-08-19T15:33:23;4.20;;;3.80;;
16973;SDS011;8603;46.944;7.412;2022-08-19T15:35:49;4.68;;;3.97;;
16973;SDS011;8603;46.944;7.412;2022-08-19T15:38:15;4.10;;;3.70;;
16973;SDS011;8603;46.944;7.412;2022-08-19T15:40:46;4.57;;;3.88;;
16973;SDS011;8603;46.944;7.412;2022-08-19T15:43:13;4.30;;;3.90;;
16973;SDS011;8603;46.944;7.412;2022-08-19T15:45:40;6.57;;;4.63;;
16973;SDS011;8603;46.944;7.412;2022-08-19T15:48:06;7.22;;;5.10;;
16973;SDS011;8603;46.944;7.412;2022-08-19T15:50:32;6.35;;;5.18;;
16973;SDS011;8603;46.944;7.412;2022-08-19T15:53:02;8.93;;;5.55;;
16973;SDS011;8603;46.944;7.412;2022-08-19T15:55:31;6.55;;;5.90;;
16973;SDS011;8603;46.944;7.412;2022-08-19T15:58:02;6.88;;;5.82;;
16973;SDS011;8603;46.944;7.412;2022-08-19T16:00:50;8.65;;;7.03;;
16973;SDS011;8603;46.944;7.412;2022-08-19T16:03:33;8.10;;;7.13;;
16973;SDS011;8603;46.944;7.412;2022-08-19T16:06:17;8.38;;;7.45;;
16973;SDS011;8603;46.944;7.412;2022-08-19T16:08:56;9.00;;;7.53;;
16973;SDS011;8603;46.944;7.412;2022-08-19T16:11:25;9.20;;;7.80;;